Yankton, SD (57078)

23:01 CDT le 30 septembre 2014 (GMT -0500)
Gurney Municipal | Change Station
CLOSE
Current Station
Aéroport
Location: Yankton,
Altitude: 1306 ft
Stations météo à proximité

Alt. 1306 ft 42.92 °N, 97.39 °W | Updated 1 hour ago

Overcast
Couvert
64 ° F
Paraît 64 ° F
N
16
Vent Variable Vent de SSE
Gusts 20 mph

Aujourd'hui
Haut(e) -- | Bas -- ° F
--% Risque de précip.
Hier
Haut(e) -- | Bas -- ° F
Precip. -- pouce
7:25 AM 7:12 PM
Lune montante, 43% visible
Pression 29.74 pouce
Visibilité 10.0 Miles terrestres
Nuages Couvert 1200 ft
Point de rosée 61 ° F
Humidité 88%
Précipitations 0.15 pouce
Profondeur de la couche neigeuse 0 in , 1 in
UV 0 sur 12
Pollen 2.40 sur 12
Qualité de l'air Non disponible.
Flu Activity Non disponible.
METAR KYKN 010255Z AUTO 15014G17KT 10SM OVC012 18/16 A2974 RMK AO1 52017

More Conditions Fewer Conditions

Pression 29.74 pouce
Visibilité 10.0 Miles terrestres
Nuages Couvert 1200 ft
Point de rosée 61 ° F
Humidité 88%
Précipitations 0.15 pouce
Profondeur de la couche neigeuse 0 in , 1 in
UV 0 sur 12
Pollen 2.40 sur 12
Qualité de l'air Non disponible.
Flu Activity Non disponible.
METAR KYKN 010255Z AUTO 15014G17KT 10SM OVC012 18/16 A2974 RMK AO1 52017

More Conditions Fewer Conditions

10-Day Weather Forecast

Almanac

Astronomie

Sep. 30, 2014 Lever Coucher
Temps réel 07:25 CDT 19:12 CDT
Crépuscule civil 06:57 CDT 19:40 CDT
Crépuscule nautique 06:24 CDT 20:13 CDT
Crépuscule astronomique 05:51 CDT 20:46 CDT
Lune 13:41 CDT (9/30) 23:37 CDT (9/30)
Durée de lumière visible 12h 43m
Longueur du jour
11h 46m
Tomorrow will be 2m 53s shorter.
Lune montante, 43% of the Moon is Illuminated
Oct 1
Lune montante
Oct 1
Premier quartier
Oct 8
Pleine lune
Oct 15
Dernier quartier
Oct 23
Nouveau

Extrêmes aujourd'hui

State Highs State Lows

Community

WunderPhotos

Upload Photos

1,757,840 Photos téléchargées !

Nearby

Épaisseur de neige

Station Depth Altitude
North Rapid Creek 0 in 6130 ft
Blind Park 1 in 6890 ft

Activité sismique

Ville Distance Mag. Time & Date
No recent earthquake activity has been reported nearby.
Minimum magnitude displayed is 2.5.

Températures des eaux côtières

Lieu Température
Aucun rapport de station

Stations météo à proximité